createdAt,value
2022-12-14T00:01:21.860Z,99704.41
2022-12-14T00:03:49.396Z,99706.34
2022-12-14T00:06:27.747Z,99697.38
2022-12-14T00:08:56.610Z,99684.06
2022-12-14T00:11:23.838Z,99683.50
2022-12-14T00:13:58.237Z,99684.38
2022-12-14T00:16:27.507Z,99683.59
2022-12-14T00:18:56.927Z,99677.34
2022-12-14T00:21:24.116Z,99679.75
2022-12-14T00:23:52.193Z,99683.28
2022-12-14T00:26:24.381Z,99684.75
2022-12-14T00:28:52.986Z,99688.06
2022-12-14T00:31:20.659Z,99681.91
2022-12-14T00:33:47.636Z,99675.31
2022-12-14T00:36:14.640Z,99676.72
2022-12-14T00:38:41.270Z,99670.66
2022-12-14T00:41:09.050Z,99662.84
2022-12-14T00:43:36.026Z,99667.19
2022-12-14T00:46:02.698Z,99655.81
2022-12-14T00:48:30.224Z,99654.41
2022-12-14T00:50:57.637Z,99654.72
2022-12-14T00:53:25.285Z,99653.16
2022-12-14T00:55:52.286Z,99660.28
2022-12-14T00:58:21.407Z,99654.81
2022-12-14T01:00:57.831Z,99650.25
2022-12-14T01:03:24.868Z,99646.78
2022-12-14T01:05:51.519Z,99644.13
2022-12-14T01:08:18.091Z,99647.16
2022-12-14T01:10:44.777Z,99633.00
2022-12-14T01:13:11.451Z,99626.56
2022-12-14T01:15:38.364Z,99632.28
2022-12-14T01:18:05.007Z,99628.81
2022-12-14T01:20:31.582Z,99634.03
2022-12-14T01:22:58.151Z,99630.75
2022-12-14T01:25:25.267Z,99636.25
2022-12-14T01:27:51.867Z,99634.88
2022-12-14T01:30:19.229Z,99626.50
2022-12-14T01:32:46.561Z,99635.00
2022-12-14T01:35:13.076Z,99630.22
2022-12-14T01:37:39.637Z,99626.56
2022-12-14T01:40:06.613Z,99625.59
2022-12-14T01:42:35.851Z,99625.91
2022-12-14T01:45:02.839Z,99608.63
2022-12-14T01:47:35.798Z,99601.44
2022-12-14T01:50:26.369Z,99595.66
2022-12-14T01:52:58.702Z,99594.72
2022-12-14T01:55:41.594Z,99598.91
2022-12-14T01:58:23.235Z,99599.69
2022-12-14T02:00:53.957Z,99597.66
2022-12-14T02:03:24.977Z,99606.84
2022-12-14T02:05:58.210Z,99595.03
2022-12-14T02:08:27.000Z,99600.84
2022-12-14T02:10:55.274Z,99594.41
2022-12-14T02:13:27.336Z,99583.13
2022-12-14T02:15:54.803Z,99583.00
2022-12-14T02:18:26.793Z,99571.91
2022-12-14T02:21:25.011Z,99578.03
2022-12-14T02:24:15.982Z,99573.00
2022-12-14T02:27:24.492Z,99568.16
2022-12-14T02:30:18.430Z,99570.53
2022-12-14T02:33:15.541Z,99575.03
2022-12-14T02:35:45.559Z,99561.56
2022-12-14T02:38:49.692Z,99555.84
2022-12-14T02:41:56.598Z,99538.31
2022-12-14T02:44:44.638Z,99539.56
2022-12-14T02:47:38.222Z,99547.81
2022-12-14T02:50:07.824Z,99542.03
2022-12-14T02:52:38.163Z,99536.69
2022-12-14T02:55:19.856Z,99533.31
2022-12-14T02:57:49.142Z,99530.44
2022-12-14T03:00:16.178Z,99524.66
2022-12-14T03:02:45.231Z,99520.16
2022-12-14T03:05:11.995Z,99513.19
2022-12-14T03:07:48.691Z,99514.22
2022-12-14T03:10:30.386Z,99502.38
2022-12-14T03:13:19.842Z,99507.94
2022-12-14T03:15:52.935Z,99506.81
2022-12-14T03:18:24.241Z,99500.50
2022-12-14T03:20:53.851Z,99497.28
2022-12-14T03:23:28.884Z,99486.47
2022-12-14T03:26:10.907Z,99488.16
2022-12-14T03:28:51.684Z,99496.97
2022-12-14T03:31:38.265Z,99492.09
2022-12-14T03:34:13.161Z,99482.88
2022-12-14T03:36:53.129Z,99489.22
2022-12-14T03:39:31.676Z,99479.31
2022-12-14T03:42:10.788Z,99478.56
2022-12-14T03:44:59.150Z,99478.56
2022-12-14T03:48:03.405Z,99485.97
2022-12-14T03:50:33.792Z,99470.53
2022-12-14T03:53:09.484Z,99464.59
2022-12-14T03:55:45.202Z,99464.72
2022-12-14T03:58:21.842Z,99458.97
2022-12-14T04:01:29.650Z,99463.28
2022-12-14T04:04:06.805Z,99461.03
2022-12-14T04:06:43.244Z,99448.44
2022-12-14T04:09:45.878Z,99455.53
2022-12-14T04:12:35.898Z,99446.59
2022-12-14T04:15:30.085Z,99445.69
2022-12-14T04:18:20.744Z,99433.91
2022-12-14T04:20:55.646Z,99438.72
2022-12-14T04:23:53.238Z,99436.88
2022-12-14T04:26:25.750Z,99421.09
2022-12-14T04:29:25.571Z,99427.09
2022-12-14T04:31:57.838Z,99416.88
2022-12-14T04:34:28.280Z,99424.47
2022-12-14T04:36:57.608Z,99426.84
2022-12-14T04:39:33.508Z,99430.09
2022-12-14T04:42:02.667Z,99435.72
2022-12-14T04:44:35.098Z,99427.78
2022-12-14T04:47:05.766Z,99425.94
2022-12-14T04:49:39.599Z,99435.81
2022-12-14T04:52:35.574Z,99428.31
2022-12-14T04:55:11.671Z,99427.03
2022-12-14T04:57:55.198Z,99431.28
2022-12-14T05:00:22.210Z,99431.66
2022-12-14T05:02:51.763Z,99425.44
2022-12-14T05:05:37.077Z,99416.75
2022-12-14T05:08:22.016Z,99422.50
2022-12-14T05:11:09.230Z,99424.59
2022-12-14T05:13:50.635Z,99416.13
2022-12-14T05:16:18.707Z,99420.78
2022-12-14T05:18:45.958Z,99414.19
2022-12-14T05:21:32.933Z,99410.47
2022-12-14T05:24:01.521Z,99401.38
2022-12-14T05:26:29.015Z,99387.03
2022-12-14T05:28:56.654Z,99379.03
2022-12-14T05:31:24.423Z,99380.66
2022-12-14T05:33:51.061Z,99374.41
2022-12-14T05:36:18.612Z,99378.91
2022-12-14T05:38:45.215Z,99366.94
2022-12-14T05:41:11.727Z,99366.63
2022-12-14T05:43:38.333Z,99369.47
2022-12-14T05:46:05.233Z,99359.03
2022-12-14T05:48:32.107Z,99355.38
2022-12-14T05:51:07.485Z,99356.34
2022-12-14T05:53:37.603Z,99356.41
2022-12-14T05:56:07.955Z,99360.72
2022-12-14T05:58:35.389Z,99357.34
2022-12-14T06:01:09.151Z,99351.81
2022-12-14T06:03:38.309Z,99343.47
2022-12-14T06:06:07.694Z,99346.78
2022-12-14T06:08:36.124Z,99356.28
2022-12-14T06:11:14.084Z,99343.91
2022-12-14T06:13:42.239Z,99344.44
2022-12-14T06:16:11.844Z,99343.63
2022-12-14T06:18:43.555Z,99338.19
2022-12-14T06:21:10.560Z,99338.81
2022-12-14T06:23:37.161Z,99335.09
2022-12-14T06:26:03.791Z,99331.94
2022-12-14T06:28:30.585Z,99329.50
2022-12-14T06:30:57.218Z,99338.41
2022-12-14T06:33:23.786Z,99335.88
2022-12-14T06:35:50.336Z,99336.13
2022-12-14T06:38:17.504Z,99332.59
2022-12-14T06:40:44.114Z,99335.59
2022-12-14T06:43:11.377Z,99327.41
2022-12-14T06:45:38.508Z,99324.97
2022-12-14T06:48:05.284Z,99324.28
2022-12-14T06:50:31.919Z,99329.66
2022-12-14T06:52:58.401Z,99331.41
2022-12-14T06:55:25.824Z,99328.59
2022-12-14T06:57:53.627Z,99334.38
2022-12-14T07:00:22.462Z,99339.19
2022-12-14T07:02:49.684Z,99341.97
2022-12-14T07:05:16.754Z,99341.28
2022-12-14T07:07:43.371Z,99336.13
2022-12-14T07:10:10.662Z,99334.84
2022-12-14T07:12:37.270Z,99339.03
2022-12-14T07:15:04.572Z,99337.53
2022-12-14T07:17:31.222Z,99343.75
2022-12-14T07:19:57.839Z,99337.84
2022-12-14T07:22:24.615Z,99337.19
2022-12-14T07:24:51.173Z,99335.22
2022-12-14T07:27:18.889Z,99332.31
2022-12-14T07:29:45.503Z,99341.06
2022-12-14T07:32:12.055Z,99357.59
2022-12-14T07:34:38.701Z,99350.59
2022-12-14T07:37:05.269Z,99359.44
2022-12-14T07:39:31.809Z,99350.72
2022-12-14T07:41:58.383Z,99353.41
2022-12-14T07:44:25.000Z,99354.47
2022-12-14T07:46:53.242Z,99351.44
2022-12-14T07:49:20.034Z,99358.41
2022-12-14T07:51:46.643Z,99361.78
2022-12-14T07:54:13.841Z,99363.41
2022-12-14T07:56:43.220Z,99372.66
2022-12-14T07:59:14.866Z,99372.41
2022-12-14T08:01:43.440Z,99364.75
2022-12-14T08:04:13.177Z,99363.53
2022-12-14T08:06:40.693Z,99359.00
2022-12-14T08:09:09.914Z,99352.34
2022-12-14T08:11:36.931Z,99357.38
2022-12-14T08:14:06.907Z,99350.81
2022-12-14T08:16:33.954Z,99344.28
2022-12-14T08:19:00.993Z,99351.41
2022-12-14T08:21:28.244Z,99353.63
2022-12-14T08:23:55.661Z,99349.28
2022-12-14T08:26:24.024Z,99346.94
2022-12-14T08:28:50.804Z,99347.78
2022-12-14T08:31:20.682Z,99352.66
2022-12-14T08:33:48.419Z,99353.19
2022-12-14T08:36:21.394Z,99353.31
2022-12-14T08:38:59.940Z,99353.09
2022-12-14T08:41:28.202Z,99348.88
2022-12-14T08:43:56.982Z,99355.78
2022-12-14T08:46:25.132Z,99360.00
2022-12-14T08:48:53.379Z,99362.25
2022-12-14T08:51:20.982Z,99354.94
2022-12-14T08:53:48.114Z,99373.09
2022-12-14T08:56:17.647Z,99364.03
2022-12-14T08:58:44.957Z,99368.13
2022-12-14T09:01:17.437Z,99371.44
2022-12-14T09:03:45.535Z,99368.97
2022-12-14T09:06:18.366Z,99376.84
2022-12-14T09:08:44.963Z,99381.41
2022-12-14T09:11:13.781Z,99385.00
2022-12-14T09:13:42.054Z,99380.34
2022-12-14T09:16:14.299Z,99384.50
2022-12-14T09:18:41.126Z,99385.44
2022-12-14T09:21:08.591Z,99388.31
2022-12-14T09:23:36.214Z,99382.59
2022-12-14T09:26:12.006Z,99376.22
2022-12-14T09:28:40.177Z,99380.22
2022-12-14T09:31:10.197Z,99376.84
2022-12-14T09:33:37.041Z,99378.97
2022-12-14T09:36:08.642Z,99381.63
2022-12-14T09:38:37.067Z,99382.91
2022-12-14T09:41:07.652Z,99371.78
2022-12-14T09:43:37.197Z,99363.59
2022-12-14T09:46:33.256Z,99362.38
2022-12-14T09:49:01.989Z,99360.97
2022-12-14T09:51:35.487Z,99369.53
2022-12-14T09:54:14.873Z,99363.16
2022-12-14T09:56:43.993Z,99362.91
2022-12-14T09:59:16.228Z,99364.03
2022-12-14T10:02:30.815Z,99351.88
2022-12-14T10:05:19.472Z,99352.72
2022-12-14T10:08:02.277Z,99361.72
2022-12-14T10:10:40.001Z,99364.28
2022-12-14T10:13:16.010Z,99361.47
2022-12-14T10:15:55.774Z,99355.78
2022-12-14T10:18:59.197Z,99353.41
2022-12-14T10:21:47.727Z,99345.25
2022-12-14T10:24:30.075Z,99349.06
2022-12-14T10:26:56.729Z,99342.41
2022-12-14T10:29:42.865Z,99337.06
2022-12-14T10:32:25.658Z,99337.50
2022-12-14T10:34:52.312Z,99343.53
2022-12-14T10:37:55.878Z,99340.81
2022-12-14T10:40:34.464Z,99348.59
2022-12-14T10:43:31.175Z,99341.34
2022-12-14T10:46:16.646Z,99339.88
2022-12-14T10:48:55.154Z,99342.59
2022-12-14T10:51:37.178Z,99330.47
2022-12-14T10:54:25.581Z,99335.19
2022-12-14T10:56:52.311Z,99338.91
2022-12-14T10:59:20.586Z,99332.16
2022-12-14T11:02:02.027Z,99341.59
2022-12-14T11:04:33.311Z,99337.91
2022-12-14T11:07:08.465Z,99339.94
2022-12-14T11:09:36.347Z,99337.56
2022-12-14T11:12:21.640Z,99338.25
2022-12-14T11:15:03.887Z,99325.28
2022-12-14T11:17:53.361Z,99329.38
2022-12-14T11:20:27.460Z,99326.91
2022-12-14T11:22:57.023Z,99330.34
2022-12-14T11:25:27.319Z,99331.22
2022-12-14T11:27:54.221Z,99327.31
2022-12-14T11:30:20.855Z,99327.63
2022-12-14T11:32:48.415Z,99331.41
2022-12-14T11:35:17.603Z,99328.00
2022-12-14T11:37:45.515Z,99325.63
2022-12-14T11:40:23.299Z,99327.94
2022-12-14T11:42:51.923Z,99323.16
2022-12-14T11:45:33.725Z,99328.88
2022-12-14T11:48:10.345Z,99326.66
2022-12-14T11:50:37.301Z,99339.84
2022-12-14T11:53:11.031Z,99335.59
2022-12-14T11:55:44.025Z,99350.25
2022-12-14T11:58:22.145Z,99350.97
2022-12-14T12:00:58.334Z,99341.31
2022-12-14T12:03:48.501Z,99343.03
2022-12-14T12:06:21.767Z,99343.91
2022-12-14T12:08:55.881Z,99339.88
2022-12-14T12:11:28.338Z,99346.50
2022-12-14T12:14:06.561Z,99345.78
2022-12-14T12:16:35.371Z,99344.38
2022-12-14T12:19:23.051Z,99341.75
2022-12-14T12:21:50.243Z,99343.59
2022-12-14T12:24:38.749Z,99341.66
2022-12-14T12:27:15.483Z,99338.03
2022-12-14T12:29:52.451Z,99324.97
2022-12-14T12:32:30.810Z,99329.66
2022-12-14T12:35:11.380Z,99336.09
2022-12-14T12:37:50.802Z,99332.72
2022-12-14T12:40:59.137Z,99333.41
2022-12-14T12:43:35.050Z,99338.22
2022-12-14T12:46:01.853Z,99337.59
2022-12-14T12:48:41.441Z,99330.06
2022-12-14T12:51:15.286Z,99329.44
2022-12-14T12:53:46.466Z,99330.59
2022-12-14T12:56:49.037Z,99331.72
2022-12-14T12:59:20.452Z,99334.13
2022-12-14T13:01:52.865Z,99341.16
2022-12-14T13:04:31.504Z,99327.03
2022-12-14T13:07:10.834Z,99333.91
2022-12-14T13:09:48.607Z,99336.94
2022-12-14T13:12:25.243Z,99342.91
2022-12-14T13:14:52.774Z,99345.16
2022-12-14T13:17:44.619Z,99343.31
2022-12-14T13:20:40.743Z,99340.34
2022-12-14T13:23:43.111Z,99343.41
2022-12-14T13:26:56.257Z,99344.13
2022-12-14T13:30:00.179Z,99346.00
2022-12-14T13:33:04.649Z,99350.19
2022-12-14T13:36:00.524Z,99350.59
2022-12-14T13:38:35.771Z,99346.34
2022-12-14T13:41:02.580Z,99344.47
2022-12-14T13:43:51.835Z,99346.84
2022-12-14T13:46:23.314Z,99339.91
2022-12-14T13:48:53.863Z,99344.47
2022-12-14T13:51:28.988Z,99351.28
2022-12-14T13:53:59.095Z,99348.22
2022-12-14T13:56:38.244Z,99342.97
2022-12-14T13:59:20.435Z,99361.13
2022-12-14T14:01:47.054Z,99357.53
2022-12-14T14:04:14.075Z,99351.09
2022-12-14T14:06:51.134Z,99356.69
2022-12-14T14:09:30.541Z,99351.28
2022-12-14T14:11:58.999Z,99356.69
2022-12-14T14:14:49.841Z,99359.25
2022-12-14T14:17:30.499Z,99366.53
2022-12-14T14:19:59.069Z,99360.09
2022-12-14T14:22:30.122Z,99363.16
2022-12-14T14:25:12.739Z,99367.22
2022-12-14T14:27:47.259Z,99367.22
2022-12-14T14:30:33.471Z,99360.41
2022-12-14T14:33:35.938Z,99360.09
2022-12-14T14:35:49.564Z,99363.31
2022-12-14T14:38:30.978Z,99367.53
2022-12-14T14:41:18.149Z,99370.44
2022-12-14T14:43:58.800Z,99372.28
2022-12-14T14:46:39.093Z,99374.84
2022-12-14T14:49:19.169Z,99374.84
2022-12-14T14:51:46.269Z,99377.72
2022-12-14T14:55:06.526Z,99378.41
2022-12-14T14:57:35.841Z,99380.91
2022-12-14T15:00:04.622Z,99382.78
2022-12-14T15:02:34.257Z,99380.59
2022-12-14T15:05:24.654Z,99379.06
2022-12-14T15:07:48.357Z,99392.59
2022-12-14T15:10:42.750Z,99392.97
2022-12-14T15:13:20.618Z,99401.75
2022-12-14T15:15:51.255Z,99401.75
2022-12-14T15:18:33.045Z,99401.06
2022-12-14T15:21:11.042Z,99403.91
2022-12-14T15:23:50.320Z,99400.19
2022-12-14T15:26:26.317Z,99392.09
2022-12-14T15:28:55.266Z,99404.22
2022-12-14T15:31:41.704Z,99409.47
2022-12-14T15:34:16.320Z,99410.84
2022-12-14T15:36:43.975Z,99413.53
2022-12-14T15:39:43.469Z,99413.13
2022-12-14T15:42:17.377Z,99411.00
2022-12-14T15:44:52.624Z,99408.78
2022-12-14T15:47:23.318Z,99413.28
2022-12-14T15:49:53.384Z,99424.28
2022-12-14T15:52:30.254Z,99420.59
2022-12-14T15:54:59.208Z,99418.06
2022-12-14T15:57:26.036Z,99420.56
2022-12-14T15:59:56.299Z,99424.44
2022-12-14T16:02:31.063Z,99418.34
2022-12-14T16:05:03.352Z,99427.13
2022-12-14T16:07:38.469Z,99421.97
2022-12-14T16:10:28.398Z,99422.69
2022-12-14T16:13:21.806Z,99427.25
2022-12-14T16:15:49.469Z,99427.16
2022-12-14T16:18:17.752Z,99428.28
2022-12-14T16:20:46.370Z,99437.28
2022-12-14T16:23:13.022Z,99435.53
2022-12-14T16:25:50.441Z,99433.84
2022-12-14T16:28:32.672Z,99454.00
2022-12-14T16:31:11.458Z,99454.63
2022-12-14T16:33:40.811Z,99452.47
2022-12-14T16:36:27.987Z,99452.59
2022-12-14T16:39:00.722Z,99456.81
2022-12-14T16:41:39.376Z,99471.97
2022-12-14T16:44:09.588Z,99462.91
2022-12-14T16:46:36.373Z,99471.72
2022-12-14T16:49:47.958Z,99464.78
2022-12-14T16:52:26.643Z,99474.56
2022-12-14T16:55:15.658Z,99468.56
2022-12-14T16:57:53.239Z,99467.63
2022-12-14T17:00:31.909Z,99469.25
2022-12-14T17:03:20.009Z,99478.88
2022-12-14T17:05:53.537Z,99480.66
2022-12-14T17:08:20.213Z,99480.28
2022-12-14T17:10:47.096Z,99476.97
2022-12-14T17:13:13.971Z,99483.97
2022-12-14T17:16:01.968Z,99497.75
2022-12-14T17:18:32.957Z,99484.31
2022-12-14T17:21:00.422Z,99490.50
2022-12-14T17:23:28.037Z,99484.38
2022-12-14T17:25:54.874Z,99493.81
2022-12-14T17:28:28.000Z,99498.59
2022-12-14T17:30:57.559Z,99501.31
2022-12-14T17:33:25.839Z,99494.75
2022-12-14T17:35:53.399Z,99498.91
2022-12-14T17:38:21.634Z,99501.84
2022-12-14T17:40:50.489Z,99499.44
2022-12-14T17:43:25.544Z,99493.72
2022-12-14T17:45:52.773Z,99509.66
2022-12-14T17:48:19.943Z,99507.16
2022-12-14T17:50:49.714Z,99507.88
2022-12-14T17:53:22.517Z,99507.38
2022-12-14T17:55:49.189Z,99497.09
2022-12-14T17:58:16.646Z,99499.97
2022-12-14T18:01:01.812Z,99509.47
2022-12-14T18:03:36.001Z,99512.19
2022-12-14T18:06:04.503Z,99518.22
2022-12-14T18:08:31.170Z,99519.69
2022-12-14T18:11:00.922Z,99516.75
2022-12-14T18:13:31.058Z,99522.69
2022-12-14T18:15:58.313Z,99516.59
2022-12-14T18:18:27.477Z,99519.19
2022-12-14T18:20:57.180Z,99529.72
2022-12-14T18:23:23.944Z,99529.69
2022-12-14T18:25:55.710Z,99531.91
2022-12-14T18:28:23.475Z,99532.19
2022-12-14T18:30:55.267Z,99520.78
2022-12-14T18:33:25.287Z,99520.44
2022-12-14T18:35:53.487Z,99511.97
2022-12-14T18:38:20.412Z,99516.78
2022-12-14T18:40:50.368Z,99515.28
2022-12-14T18:43:23.561Z,99524.69
2022-12-14T18:45:52.044Z,99534.69
2022-12-14T18:48:18.815Z,99529.88
2022-12-14T18:50:45.830Z,99536.88
2022-12-14T18:53:18.832Z,99538.44
2022-12-14T18:55:46.379Z,99541.06
2022-12-14T18:58:19.448Z,99550.25
2022-12-14T19:00:47.426Z,99546.81
2022-12-14T19:03:15.211Z,99548.84
2022-12-14T19:05:42.810Z,99548.53
2022-12-14T19:08:10.615Z,99546.25
2022-12-14T19:10:40.712Z,99546.78
2022-12-14T19:13:09.549Z,99549.03
2022-12-14T19:15:36.406Z,99549.94
2022-12-14T19:18:03.645Z,99555.38
2022-12-14T19:20:30.369Z,99556.50
2022-12-14T19:22:57.296Z,99553.38
2022-12-14T19:25:24.777Z,99550.59
2022-12-14T19:30:38.879Z,99563.16
2022-12-14T19:33:05.489Z,99569.97
2022-12-14T19:35:32.202Z,99576.53
2022-12-14T19:37:58.855Z,99571.97
2022-12-14T19:40:26.119Z,99571.53
2022-12-14T19:42:52.662Z,99576.81
2022-12-14T19:45:19.389Z,99577.66
2022-12-14T19:47:46.349Z,99579.78
2022-12-14T19:50:14.426Z,99579.09
2022-12-14T19:52:41.307Z,99584.28
2022-12-14T19:55:08.532Z,99583.38
2022-12-14T19:57:35.055Z,99585.16
2022-12-14T20:00:01.771Z,99590.59
2022-12-14T20:02:37.403Z,99583.19
2022-12-14T20:05:05.186Z,99582.34
2022-12-14T20:07:31.919Z,99572.69
2022-12-14T20:09:58.591Z,99573.28
2022-12-14T20:12:25.104Z,99585.03
2022-12-14T20:14:51.696Z,99579.22
2022-12-14T20:17:18.371Z,99581.88
2022-12-14T20:19:45.008Z,99598.78
2022-12-14T20:22:14.565Z,99591.78
2022-12-14T20:24:42.222Z,99594.75
2022-12-14T20:27:08.819Z,99592.22
2022-12-14T20:29:35.451Z,99610.16
2022-12-14T20:32:02.184Z,99613.81
2022-12-14T20:34:30.554Z,99614.13
2022-12-14T20:36:57.088Z,99621.78
2022-12-14T20:39:23.760Z,99629.00
2022-12-14T20:41:50.491Z,99628.75
2022-12-14T20:44:17.202Z,99631.53
2022-12-14T20:46:47.116Z,99632.72
2022-12-14T20:49:16.620Z,99638.56
2022-12-14T20:51:44.643Z,99646.22
2022-12-14T20:54:16.052Z,99647.94
2022-12-14T20:56:43.031Z,99651.59
2022-12-14T20:59:10.210Z,99649.88
2022-12-14T21:01:38.621Z,99649.31
2022-12-14T21:04:06.029Z,99646.75
2022-12-14T21:06:33.318Z,99647.16
2022-12-14T21:09:06.224Z,99646.44
2022-12-14T21:11:54.017Z,99648.84
2022-12-14T21:14:22.165Z,99654.50
2022-12-14T21:16:48.766Z,99654.88
2022-12-14T21:19:16.686Z,99662.47
2022-12-14T21:21:48.090Z,99669.97
2022-12-14T21:24:37.231Z,99675.59
2022-12-14T21:27:05.528Z,99674.31
2022-12-14T21:29:32.123Z,99681.44
2022-12-14T21:31:58.996Z,99682.31
2022-12-14T21:34:25.623Z,99677.75
2022-12-14T21:36:52.269Z,99680.31
2022-12-14T21:39:19.947Z,99679.91
2022-12-14T21:42:06.380Z,99683.88
2022-12-14T21:44:34.811Z,99687.97
2022-12-14T21:47:02.594Z,99682.16
2022-12-14T21:49:29.369Z,99678.91
2022-12-14T21:51:57.267Z,99668.94
2022-12-14T21:54:25.611Z,99659.41
2022-12-14T21:57:10.839Z,99667.22
2022-12-14T21:59:40.094Z,99666.78
2022-12-14T22:02:19.187Z,99670.91
2022-12-14T22:04:46.723Z,99676.06
2022-12-14T22:07:19.327Z,99670.22
2022-12-14T22:09:49.695Z,99675.19
2022-12-14T22:12:18.149Z,99665.53
2022-12-14T22:14:44.696Z,99685.00
2022-12-14T22:17:13.514Z,99677.19
2022-12-14T22:19:40.140Z,99682.28
2022-12-14T22:22:06.876Z,99678.19
2022-12-14T22:24:33.458Z,99686.28
2022-12-14T22:27:00.149Z,99682.88
2022-12-14T22:29:26.816Z,99691.97
2022-12-14T22:31:53.621Z,99697.94
2022-12-14T22:34:22.695Z,99684.44
2022-12-14T22:36:51.049Z,99680.88
2022-12-14T22:39:18.902Z,99675.03
2022-12-14T22:41:46.078Z,99684.00
2022-12-14T22:44:13.103Z,99688.81
2022-12-14T22:46:40.583Z,99706.19
2022-12-14T22:49:07.161Z,99699.94
2022-12-14T22:51:33.710Z,99705.31
2022-12-14T22:54:00.234Z,99712.50
2022-12-14T22:56:48.135Z,99711.50
2022-12-14T22:59:22.003Z,99714.09
2022-12-14T23:01:49.566Z,99717.19
2022-12-14T23:04:17.354Z,99717.41
2022-12-14T23:06:45.037Z,99706.53
2022-12-14T23:09:30.712Z,99716.34
2022-12-14T23:12:21.197Z,99715.97
2022-12-14T23:15:07.270Z,99709.69
2022-12-14T23:17:52.542Z,99701.31
2022-12-14T23:20:37.733Z,99708.56
2022-12-14T23:23:27.684Z,99709.03
2022-12-14T23:26:13.567Z,99712.47
2022-12-14T23:28:59.402Z,99714.88
2022-12-14T23:31:44.571Z,99720.81
2022-12-14T23:34:29.698Z,99723.25
2022-12-14T23:37:19.793Z,99729.06
2022-12-14T23:40:06.359Z,99734.28
2022-12-14T23:42:51.748Z,99736.66
2022-12-14T23:45:36.721Z,99743.63
2022-12-14T23:48:22.083Z,99744.22
2022-12-14T23:51:07.280Z,99737.31
2022-12-14T23:53:52.630Z,99739.38
2022-12-14T23:56:37.885Z,99746.19
2022-12-14T23:59:27.991Z,99737.97
